Aérodrome :
LOGIN :

S'inscrire | Disclaimer

   EN    FR    IT 

 










Légende :    VFR   VFR Marginal   IFR   IFR Intensif   IFR Très Intensif
Visi : 
Plafond : 
>= 8 km
>= 3000ft
5 à 8 km
1000 à 3000 ft
1500m à 5 km
500 à 1000 ft
800 à 1500m
200 à 500 ft
< 800m
< 200 ft
Symboles :   Orages  Brouillard  Fortes neiges  Fortes précipitations  Vent > 20 kt
SIGMETs :   Divers  Orages  Givrage  Turbulence  Onde Orograph.  Cendres Volcan.







- Altitude de l'aérodrome : 1682 ft
- Code IATA : VIT


LEVT - Vitoria Gasteiz

DERNIER METAR :
  • 251100Z 31007KT 270V350 9999 FEW025 SCT035 20/11 Q1023

METARs EXPIRÉS :
  • 251030Z 33009KT 270V360 9999 FEW025 BKN060 19/11 Q1023
  • 251000Z 31008KT 260V010 9999 FEW020 SCT060 19/11 Q1023
  • 250930Z 35005KT 280V040 9999 FEW020 SCT060 18/11 Q1023
  • 250900Z 31008KT 260V340 9999 FEW020 BKN060 17/11 Q1023
  • 250830Z 00000KT 9999 FEW020 SCT070 17/12 Q1023

TAF TAF LEVT
Valide du 25 à 12h jusqu'au 26 à 12h UTC


251100Z 2512/2612 34009KT 9999 SCT030 SCT050 TX20/2518Z TN11/2606Z
PROB30
TEMPO 2512/2518 3000 -RA BKN014
PROB40
TEMPO 2518/2607 BKN014
Pas de NOTAMs connus pour ce terrain.



MET'MAP, la Météo Aéronautique d'un coup d'oeil ! - Copyright ORBIFLY Décembre 2007 - Disclaimer

ORBIFLY MET'MAP TEAM :

Programmation & Développement : Alexandra Zaïnal
Conception & Développement : Baudouin d'Aumeries
Co-Programmation & Développement : Marc-Olivier Méhu
Soutien technique & logistique : Manuel Goepfert

Contact : metmap@orbifly.com




SOURCES & CREDITS :

   NOAA